Time;durP1;ratioP1;P1;durP2;ratioP2;P2;SDS_P1;SDS_P2;PMS_P1;PMS_P2;Temp;Humidity;BMP_temperature;BMP_pressure;BME280_temperature;BME280_humidity;BME280_pressure;Samples;Min_cycle;Max_cycle;Signal;HPM_P1;HPM_P2
2021/08/12 00:01:23;;;;;;;13.00;6.93;;;13.90;99.90;;;;;;5231536;28;20275;-62
2021/08/12 00:03:56;;;;;;;18.73;8.77;;;13.90;99.90;;;;;;5231892;28;20221;-62
2021/08/12 00:06:30;;;;;;;14.07;8.63;;;13.90;99.90;;;;;;5213900;28;20240;-63
2021/08/12 00:09:02;;;;;;;15.30;9.13;;;13.80;99.90;;;;;;5230198;28;20659;-63
2021/08/12 00:11:34;;;;;;;13.27;7.83;;;13.80;99.90;;;;;;5230514;28;20236;-63
2021/08/12 00:14:07;;;;;;;13.50;8.80;;;13.80;99.90;;;;;;5230423;28;20213;-63
2021/08/12 00:16:39;;;;;;;19.63;8.77;;;13.80;99.90;;;;;;5231260;28;20240;-63
2021/08/12 00:19:14;;;;;;;13.20;8.67;;;13.80;99.90;;;;;;5231051;28;20617;-63
2021/08/12 00:21:46;;;;;;;12.67;8.53;;;13.80;99.90;;;;;;5229324;28;20224;-63
2021/08/12 00:24:21;;;;;;;15.30;8.10;;;13.80;99.90;;;;;;5230610;28;20275;-62
2021/08/12 00:26:53;;;;;;;12.57;7.87;;;13.80;99.90;;;;;;5229957;28;20229;-62
2021/08/12 00:29:25;;;;;;;12.00;7.97;;;13.80;99.90;;;;;;5229992;28;20254;-63
2021/08/12 00:31:59;;;;;;;12.77;8.80;;;13.80;99.90;;;;;;5230474;28;20287;-63
2021/08/12 00:34:31;;;;;;;11.20;7.70;;;13.70;99.90;;;;;;5229649;28;20212;-62
2021/08/12 00:37:04;;;;;;;12.07;8.27;;;13.70;99.90;;;;;;5229875;28;20230;-62
2021/08/12 00:39:36;;;;;;;13.97;8.80;;;13.70;99.90;;;;;;5213753;28;20225;-63
2021/08/12 00:42:10;;;;;;;11.30;8.50;;;13.80;99.90;;;;;;5229850;28;20564;-61
2021/08/12 00:44:42;;;;;;;15.97;8.57;;;13.80;99.90;;;;;;5230979;28;20244;-62
2021/08/12 00:47:16;;;;;;;13.13;8.73;;;13.70;99.90;;;;;;5229400;28;20561;-67
2021/08/12 00:49:48;;;;;;;11.37;8.87;;;13.70;99.90;;;;;;5230625;28;20212;-67
2021/08/12 00:52:24;;;;;;;12.73;8.00;;;13.70;99.90;;;;;;5230565;28;20233;-63
2021/08/12 00:54:59;;;;;;;12.53;8.67;;;13.70;99.90;;;;;;5230433;28;20212;-63
2021/08/12 00:57:34;;;;;;;15.90;8.57;;;13.70;99.90;;;;;;5230513;28;20235;-63
2021/08/12 01:00:07;;;;;;;11.50;8.53;;;13.70;99.90;;;;;;5230620;28;20232;-63
2021/08/12 01:02:42;;;;;;;12.70;8.07;;;13.70;99.90;;;;;;5214691;28;20245;-63
2021/08/12 01:05:17;;;;;;;14.30;8.83;;;13.70;99.90;;;;;;5229484;28;20209;-63
2021/08/12 01:07:57;;;;;;;14.47;8.87;;;13.60;99.90;;;;;;5230264;28;20240;-62
2021/08/12 01:10:39;;;;;;;16.30;9.03;;;13.70;99.90;;;;;;5230470;28;20600;-64
2021/08/12 01:13:14;;;;;;;14.10;8.93;;;13.70;99.90;;;;;;5229951;28;20233;-63
2021/08/12 01:15:51;;;;;;;15.53;8.83;;;13.60;99.90;;;;;;5229737;28;20212;-63
2021/08/12 01:18:41;;;;;;;15.47;8.67;;;13.70;99.90;;;;;;5230004;28;20239;-64
2021/08/12 01:21:25;;;;;;;11.53;8.10;;;13.70;99.90;;;;;;5230482;28;20220;-64
2021/08/12 01:24:00;;;;;;;14.70;8.47;;;13.60;99.90;;;;;;5232354;28;20573;-63
2021/08/12 01:26:33;;;;;;;17.53;9.30;;;13.60;99.90;;;;;;5228913;28;20219;-65
2021/08/12 01:29:09;;;;;;;11.47;7.77;;;13.60;99.90;;;;;;5228417;28;20221;-64
2021/08/12 01:32:01;;;;;;;15.20;8.50;;;13.60;99.90;;;;;;5229785;28;20193;-64
2021/08/12 01:34:54;;;;;;;13.30;8.00;;;13.60;99.90;;;;;;5230422;28;20186;-65
2021/08/12 01:37:32;;;;;;;15.13;8.00;;;13.60;99.90;;;;;;5228370;28;20248;-61
2021/08/12 01:40:08;;;;;;;13.93;8.03;;;13.60;99.90;;;;;;5229420;28;20215;-63
2021/08/12 01:42:42;;;;;;;11.07;8.00;;;13.60;99.90;;;;;;5229493;28;20240;-62
2021/08/12 01:45:15;;;;;;;13.37;7.73;;;13.60;99.90;;;;;;5229666;28;20217;-63
2021/08/12 01:47:48;;;;;;;11.23;7.93;;;13.60;99.90;;;;;;5229523;28;20312;-61
2021/08/12 01:50:21;;;;;;;14.43;8.47;;;13.60;99.90;;;;;;5228655;28;20232;-61
2021/08/12 01:52:55;;;;;;;12.40;7.77;;;13.50;99.90;;;;;;5212180;28;20529;-63
2021/08/12 01:55:32;;;;;;;12.23;7.27;;;13.50;99.90;;;;;;5228940;28;20206;-63
2021/08/12 01:58:05;;;;;;;11.40;8.07;;;13.40;99.90;;;;;;5229241;28;20233;-64
2021/08/12 02:00:38;;;;;;;13.73;8.70;;;13.40;99.90;;;;;;5228415;28;20351;-63
2021/08/12 02:03:14;;;;;;;11.33;7.90;;;13.40;99.90;;;;;;5229324;28;20229;-64
2021/08/12 02:05:49;;;;;;;15.57;8.67;;;13.40;99.90;;;;;;5229243;28;20241;-64
2021/08/12 02:08:22;;;;;;;13.23;8.90;;;13.40;99.90;;;;;;5227961;28;20241;-62
2021/08/12 02:10:54;;;;;;;15.10;8.83;;;13.40;99.90;;;;;;5229236;28;20252;-62
2021/08/12 02:13:28;;;;;;;13.97;8.77;;;13.40;99.90;;;;;;5233946;28;20244;-64
2021/08/12 02:16:01;;;;;;;14.80;8.70;;;13.40;99.90;;;;;;5229176;28;20207;-63
2021/08/12 02:18:39;;;;;;;14.97;8.90;;;13.40;99.90;;;;;;5211217;28;20233;-63
2021/08/12 02:21:16;;;;;;;14.63;8.87;;;13.40;99.90;;;;;;5229267;28;20258;-62
2021/08/12 02:24:03;;;;;;;10.93;8.90;;;13.40;99.90;;;;;;5227594;28;20311;-62
2021/08/12 02:26:54;;;;;;;15.97;8.70;;;13.40;99.90;;;;;;5227724;28;20193;-62
2021/08/12 02:29:29;;;;;;;17.20;9.87;;;13.40;99.90;;;;;;5227770;28;20232;-65
2021/08/12 02:32:09;;;;;;;14.00;9.73;;;13.40;99.90;;;;;;5228068;28;20521;-65
2021/08/12 02:34:43;;;;;;;16.77;9.40;;;13.30;99.90;;;;;;5228676;28;20314;-62
2021/08/12 02:37:19;;;;;;;15.70;9.63;;;13.40;99.90;;;;;;5227366;28;20209;-66
2021/08/12 02:39:52;;;;;;;13.47;9.17;;;13.40;99.90;;;;;;5227811;28;20291;-62
2021/08/12 02:42:25;;;;;;;14.87;9.53;;;13.30;99.90;;;;;;5228592;28;20221;-63
2021/08/12 02:44:58;;;;;;;14.87;9.17;;;13.30;99.90;;;;;;5228948;28;20229;-63
2021/08/12 02:47:36;;;;;;;15.73;9.27;;;13.30;99.90;;;;;;5228645;28;20290;-63
2021/08/12 02:50:10;;;;;;;13.97;8.77;;;13.30;99.90;;;;;;5211535;28;20229;-63
2021/08/12 02:52:43;;;;;;;15.43;9.73;;;13.30;99.90;;;;;;5228280;28;20216;-63
2021/08/12 02:55:16;;;;;;;15.27;9.97;;;13.30;99.90;;;;;;5228487;28;20213;-63
2021/08/12 02:57:48;;;;;;;14.47;9.43;;;13.20;99.90;;;;;;5228906;28;20212;-64
2021/08/12 03:00:22;;;;;;;15.23;9.30;;;13.20;99.90;;;;;;5227257;28;20241;-65
2021/08/12 03:02:55;;;;;;;14.07;9.70;;;13.20;99.90;;;;;;5227445;28;20212;-64
2021/08/12 03:05:31;;;;;;;16.93;9.50;;;13.20;99.90;;;;;;5228433;28;20294;-63
2021/08/12 03:08:12;;;;;;;19.93;10.13;;;13.20;99.90;;;;;;5228333;28;20671;-61
2021/08/12 03:10:44;;;;;;;17.53;10.13;;;13.20;99.90;;;;;;5228065;28;20213;-62
2021/08/12 03:13:16;;;;;;;18.50;10.57;;;13.20;99.90;;;;;;5211031;28;20210;-64
2021/08/12 03:15:52;;;;;;;14.63;9.77;;;13.10;99.90;;;;;;5228617;28;20613;-65
2021/08/12 03:18:24;;;;;;;15.30;10.07;;;13.10;99.90;;;;;;5228927;28;20185;-64
2021/08/12 03:21:03;;;;;;;18.13;10.17;;;13.10;99.90;;;;;;5227592;28;20275;-62
2021/08/12 03:23:36;;;;;;;16.00;9.33;;;13.10;99.90;;;;;;5227558;28;20205;-63
2021/08/12 03:26:08;;;;;;;17.47;10.13;;;13.10;99.90;;;;;;5228331;28;20593;-63
2021/08/12 03:28:42;;;;;;;18.23;11.30;;;13.10;99.90;;;;;;5229821;28;20222;-63
2021/08/12 03:31:15;;;;;;;14.27;10.17;;;13.10;99.90;;;;;;5232601;28;20205;-63
2021/08/12 03:33:47;;;;;;;18.43;11.63;;;13.10;99.90;;;;;;5231433;28;20301;-63
2021/08/12 03:36:21;;;;;;;16.37;10.60;;;13.10;99.90;;;;;;5234579;28;20206;-64
2021/08/12 03:38:53;;;;;;;17.93;10.70;;;13.20;99.90;;;;;;5232107;28;20201;-62
2021/08/12 03:41:25;;;;;;;20.93;12.30;;;13.20;99.90;;;;;;5232438;28;20205;-67
2021/08/12 03:43:59;;;;;;;19.00;12.80;;;13.20;99.90;;;;;;5232250;28;20213;-64
2021/08/12 03:46:34;;;;;;;18.37;11.97;;;13.20;99.90;;;;;;5232188;28;20614;-65
2021/08/12 03:49:07;;;;;;;18.80;11.53;;;13.30;99.90;;;;;;5231516;28;20221;-65
2021/08/12 03:51:38;;;;;;;18.53;11.53;;;13.30;99.90;;;;;;5232215;28;20206;-64
2021/08/12 03:54:11;;;;;;;20.60;11.77;;;13.40;99.90;;;;;;5231808;28;20202;-63
2021/08/12 03:56:43;;;;;;;18.90;12.40;;;13.40;99.90;;;;;;5231657;28;20201;-64
2021/08/12 03:59:15;;;;;;;18.10;11.50;;;13.40;99.90;;;;;;5231218;28;20237;-62
2021/08/12 04:01:46;;;;;;;20.37;11.70;;;13.40;99.90;;;;;;5231060;28;20201;-63
2021/08/12 04:04:21;;;;;;;21.03;13.00;;;13.40;99.90;;;;;;5230499;28;20227;-62
2021/08/12 04:06:53;;;;;;;20.50;11.90;;;13.50;99.90;;;;;;5230299;28;20205;-62
2021/08/12 04:09:25;;;;;;;18.73;11.73;;;13.60;99.90;;;;;;5230327;28;20229;-64
2021/08/12 04:12:01;;;;;;;18.03;11.07;;;13.60;99.90;;;;;;5231084;28;20228;-63
2021/08/12 04:14:33;;;;;;;18.33;11.37;;;13.60;99.90;;;;;;5231091;28;20220;-64
2021/08/12 04:17:05;;;;;;;17.57;12.03;;;13.70;99.90;;;;;;5230004;28;20201;-63
2021/08/12 04:19:37;;;;;;;18.93;11.70;;;13.80;99.90;;;;;;5231241;28;20209;-62
2021/08/12 04:22:09;;;;;;;18.73;11.13;;;13.90;99.90;;;;;;5231165;28;20652;-63
2021/08/12 04:24:41;;;;;;;17.07;10.60;;;13.90;99.90;;;;;;5230153;28;20209;-64
2021/08/12 04:27:14;;;;;;;18.93;12.17;;;14.00;99.90;;;;;;5213751;28;20220;-64
2021/08/12 04:29:46;;;;;;;17.87;11.37;;;14.10;99.90;;;;;;5229367;28;20229;-63
2021/08/12 04:32:18;;;;;;;17.00;11.53;;;14.10;99.90;;;;;;5230006;28;20220;-65
2021/08/12 04:34:52;;;;;;;17.93;11.03;;;14.20;99.90;;;;;;5230052;28;20201;-62
2021/08/12 04:37:25;;;;;;;19.00;11.33;;;14.30;99.90;;;;;;5229857;28;20303;-65
2021/08/12 04:39:57;;;;;;;16.07;10.70;;;14.30;99.90;;;;;;5229183;28;20262;-64
2021/08/12 04:42:29;;;;;;;18.00;10.93;;;14.40;99.90;;;;;;5229541;28;20292;-65
2021/08/12 04:45:01;;;;;;;21.77;11.93;;;14.50;99.90;;;;;;5230539;28;20686;-65
2021/08/12 04:47:33;;;;;;;18.37;11.63;;;14.60;99.90;;;;;;5230201;28;20216;-63
2021/08/12 04:50:07;;;;;;;18.03;11.37;;;14.70;99.90;;;;;;5229623;28;20228;-64
2021/08/12 04:52:39;;;;;;;19.47;11.47;;;14.80;99.90;;;;;;5230384;28;20237;-63
2021/08/12 04:55:11;;;;;;;20.50;11.37;;;14.90;99.90;;;;;;5230528;28;20248;-62
2021/08/12 04:57:43;;;;;;;18.67;10.83;;;15.00;99.90;;;;;;5231450;28;20212;-63
2021/08/12 05:00:16;;;;;;;17.07;10.57;;;15.10;99.90;;;;;;5230232;28;20688;-62
2021/08/12 05:02:48;;;;;;;13.63;10.00;;;15.20;99.90;;;;;;5213282;28;20201;-64
2021/08/12 05:05:20;;;;;;;17.20;9.73;;;15.20;99.90;;;;;;5230087;28;20280;-65
2021/08/12 05:07:54;;;;;;;15.27;10.00;;;15.30;99.90;;;;;;5230342;28;20288;-63
2021/08/12 05:10:28;;;;;;;18.13;9.93;;;15.40;99.90;;;;;;5229033;28;20200;-63
2021/08/12 05:13:02;;;;;;;18.80;10.47;;;15.50;99.90;;;;;;5230440;28;20531;-63
2021/08/12 05:15:35;;;;;;;11.40;9.20;;;15.60;99.90;;;;;;5229708;28;20212;-63
2021/08/12 05:18:07;;;;;;;14.73;9.30;;;15.60;99.90;;;;;;5228610;28;20205;-64
2021/08/12 05:20:39;;;;;;;12.53;8.70;;;15.70;99.90;;;;;;5228688;28;20217;-63
2021/08/12 05:23:12;;;;;;;15.93;8.40;;;15.80;99.90;;;;;;5229769;28;20259;-62
2021/08/12 05:25:44;;;;;;;14.57;9.40;;;15.90;99.90;;;;;;5228766;28;20220;-63
2021/08/12 05:28:16;;;;;;;17.47;9.37;;;15.90;99.90;;;;;;5229606;28;20340;-64
2021/08/12 05:30:51;;;;;;;14.30;8.40;;;16.00;99.90;;;;;;5228742;28;20575;-62
2021/08/12 05:33:23;;;;;;;12.87;7.93;;;16.20;99.90;;;;;;5229969;28;20545;-65
2021/08/12 05:35:57;;;;;;;15.73;8.37;;;16.20;99.90;;;;;;5229576;28;20209;-64
2021/08/12 05:38:29;;;;;;;11.47;8.00;;;16.30;99.90;;;;;;5228506;28;20220;-63
2021/08/12 05:41:01;;;;;;;12.97;8.30;;;16.40;99.90;;;;;;5229588;28;20205;-64
2021/08/12 05:43:38;;;;;;;13.00;7.60;;;16.50;99.90;;;;;;5229699;28;20241;-65
2021/08/12 05:46:12;;;;;;;17.30;9.20;;;16.60;99.90;;;;;;5229253;28;20205;-62
2021/08/12 05:48:44;;;;;;;11.97;7.77;;;16.70;99.90;;;;;;5228375;28;20220;-63
2021/08/12 05:51:18;;;;;;;11.23;7.53;;;16.80;99.90;;;;;;5229331;28;20198;-63
2021/08/12 05:53:53;;;;;;;9.23;7.40;;;17.00;99.90;;;;;;5229494;28;20197;-63
2021/08/12 05:56:25;;;;;;;12.37;7.50;;;17.10;99.90;;;;;;5228338;28;20621;-66
2021/08/12 05:58:59;;;;;;;12.77;7.43;;;17.20;99.90;;;;;;5211742;28;20233;-63
2021/08/12 06:01:31;;;;;;;12.20;7.40;;;17.30;99.90;;;;;;5224860;28;20583;-65
2021/08/12 06:04:04;;;;;;;11.70;6.70;;;17.50;99.90;;;;;;5229349;28;20546;-62
2021/08/12 06:06:39;;;;;;;13.17;6.33;;;17.50;99.90;;;;;;5211967;28;20210;-71
2021/08/12 06:09:11;;;;;;;11.40;6.55;;;17.60;99.90;;;;;;5228500;28;20228;-69
2021/08/12 06:11:43;;;;;;;11.97;5.90;;;17.70;99.90;;;;;;5228759;28;20201;-63
2021/08/12 06:14:15;;;;;;;8.90;5.35;;;17.80;99.90;;;;;;5228272;28;20560;-64
2021/08/12 06:16:47;;;;;;;8.77;5.80;;;17.90;99.90;;;;;;5228056;28;20305;-65
2021/08/12 06:19:18;;;;;;;11.00;5.30;;;18.10;99.90;;;;;;5227553;28;20213;-69
2021/08/12 06:21:50;;;;;;;9.05;4.22;;;18.80;99.90;;;;;;5227845;28;20259;-61
2021/08/12 06:24:24;;;;;;;8.15;3.95;;;20.40;99.90;;;;;;5227785;28;20205;-69
2021/08/12 06:26:57;;;;;;;7.38;3.38;;;22.20;99.90;;;;;;5228130;28;20589;-64
2021/08/12 06:29:29;;;;;;;5.43;3.05;;;23.50;99.90;;;;;;5229118;28;20240;-64
2021/08/12 06:32:01;;;;;;;5.55;2.90;;;24.70;99.90;;;;;;5228246;28;20586;-67
2021/08/12 06:34:33;;;;;;;6.35;2.78;;;25.60;99.90;;;;;;5211155;28;20211;-66
2021/08/12 06:37:05;;;;;;;7.82;3.20;;;26.20;99.90;;;;;;5228756;28;20216;-68
2021/08/12 06:39:37;;;;;;;4.30;2.33;;;27.00;99.90;;;;;;5227554;28;20632;-66
2021/08/12 06:42:08;;;;;;;4.18;2.30;;;27.60;99.90;;;;;;5228975;28;20629;-63
2021/08/12 06:44:43;;;;;;;7.18;2.60;;;28.30;99.90;;;;;;5228209;28;20206;-61
2021/08/12 06:47:16;;;;;;;4.80;2.42;;;28.30;99.90;;;;;;5228711;28;20555;-64
2021/08/12 06:49:48;;;;;;;5.20;2.45;;;28.10;99.90;;;;;;5227411;28;20257;-64
2021/08/12 06:52:23;;;;;;;6.90;2.40;;;27.70;99.90;;;;;;5227537;28;20659;-64
2021/08/12 06:54:55;;;;;;;5.13;2.25;;;27.40;99.90;;;;;;5228374;28;20212;-64
2021/08/12 06:57:27;;;;;;;3.13;1.70;;;26.50;99.90;;;;;;5228732;28;20300;-62
2021/08/12 06:59:59;;;;;;;4.95;1.80;;;26.10;99.90;;;;;;5227384;28;20553;-61
2021/08/12 07:02:34;;;;;;;6.57;2.10;;;26.60;99.90;;;;;;5228191;28;20202;-64
2021/08/12 07:05:09;;;;;;;3.83;2.08;;;27.60;99.90;;;;;;5232233;28;20221;-64
2021/08/12 07:07:41;;;;;;;3.40;1.92;;;28.40;99.90;;;;;;5232469;28;20200;-63
2021/08/12 07:10:15;;;;;;;3.63;1.92;;;28.70;99.90;;;;;;5232072;28;20667;-61
2021/08/12 07:12:49;;;;;;;8.23;1.90;;;29.00;99.00;;;;;;5231481;28;20204;-65
2021/08/12 07:15:21;;;;;;;2.67;1.50;;;29.30;97.70;;;;;;5231442;28;20574;-63
2021/08/12 07:17:53;;;;;;;3.22;1.75;;;29.30;95.60;;;;;;5232234;28;20209;-60
2021/08/12 07:20:28;;;;;;;2.83;1.42;;;29.40;95.00;;;;;;5232283;28;20536;-63
2021/08/12 07:23:00;;;;;;;3.72;1.50;;;29.60;94.50;;;;;;5232451;28;20204;-64
2021/08/12 07:25:32;;;;;;;3.60;1.75;;;29.50;94.90;;;;;;5231170;28;20221;-60
2021/08/12 07:28:04;;;;;;;3.15;1.30;;;29.70;93.40;;;;;;5232611;28;20632;-63
2021/08/12 07:30:39;;;;;;;2.97;1.52;;;29.80;93.60;;;;;;5232331;28;20240;-61
2021/08/12 07:33:11;;;;;;;2.67;1.65;;;29.70;93.10;;;;;;5231749;28;20267;-62
2021/08/12 07:35:43;;;;;;;4.65;1.55;;;28.90;92.60;;;;;;5232347;28;20233;-63
2021/08/12 07:38:15;;;;;;;4.55;1.63;;;28.40;94.00;;;;;;5232653;28;20202;-62
2021/08/12 07:40:49;;;;;;;5.15;1.52;;;28.20;94.00;;;;;;5214520;28;20197;-63
2021/08/12 07:43:24;;;;;;;4.13;1.90;;;27.40;95.10;;;;;;5232058;28;20215;-62
2021/08/12 07:45:56;;;;;;;2.60;1.33;;;26.90;97.70;;;;;;5231770;28;20209;-63
2021/08/12 07:48:30;;;;;;;3.38;1.50;;;26.20;99.40;;;;;;5214423;28;20636;-63
2021/08/12 07:51:03;;;;;;;1.83;1.20;;;25.60;99.90;;;;;;5230854;28;20229;-62
2021/08/12 07:53:35;;;;;;;2.85;1.63;;;24.80;99.90;;;;;;5232043;28;20240;-64
2021/08/12 07:56:09;;;;;;;3.83;1.60;;;24.40;99.90;;;;;;5231373;28;20225;-63
2021/08/12 07:58:43;;;;;;;3.55;1.67;;;24.20;99.90;;;;;;5231876;28;20673;-63
2021/08/12 08:01:16;;;;;;;3.88;1.80;;;24.30;99.90;;;;;;5214713;28;20232;-62
2021/08/12 08:03:52;;;;;;;4.68;1.80;;;24.10;99.90;;;;;;5231011;28;20244;-64
2021/08/12 08:06:24;;;;;;;3.15;1.40;;;23.60;99.90;;;;;;5231276;28;20228;-66
2021/08/12 08:08:56;;;;;;;3.83;1.48;;;23.50;99.90;;;;;;5231373;28;20240;-63
2021/08/12 08:11:31;;;;;;;2.63;1.45;;;23.60;99.90;;;;;;5231708;28;20211;-62
2021/08/12 08:14:06;;;;;;;3.28;1.70;;;23.50;99.90;;;;;;5230816;28;20197;-63
2021/08/12 08:16:38;;;;;;;3.72;1.42;;;23.30;99.90;;;;;;5229706;28;20287;-60
2021/08/12 08:19:10;;;;;;;3.55;1.30;;;23.30;99.90;;;;;;5231673;28;20491;-64
2021/08/12 08:21:45;;;;;;;1.98;1.15;;;23.30;99.90;;;;;;5231156;28;20229;-61
2021/08/12 08:24:17;;;;;;;4.60;1.50;;;23.60;99.90;;;;;;5230382;28;20211;-64
2021/08/12 08:26:49;;;;;;;3.35;1.27;;;23.60;99.90;;;;;;5230623;28;20650;-63
2021/08/12 08:29:20;;;;;;;5.22;1.60;;;23.30;99.90;;;;;;5229961;28;20246;-62
2021/08/12 08:31:55;;;;;;;4.50;1.50;;;23.40;99.90;;;;;;5231224;28;20243;-66
2021/08/12 08:34:27;;;;;;;2.88;1.33;;;23.00;99.90;;;;;;5215449;28;20205;-63
2021/08/12 08:37:00;;;;;;;2.28;1.23;;;23.10;99.90;;;;;;5232771;28;20201;-63
2021/08/12 08:39:34;;;;;;;3.88;1.30;;;23.30;99.90;;;;;;5214153;28;20223;-60
2021/08/12 08:42:07;;;;;;;4.13;1.40;;;23.50;99.90;;;;;;5231471;28;20205;-61
2021/08/12 08:44:45;;;;;;;3.10;1.40;;;23.80;99.90;;;;;;5230991;28;20213;-65
2021/08/12 08:47:18;;;;;;;3.58;1.70;;;23.80;99.90;;;;;;5231277;28;20220;-60
2021/08/12 08:49:51;;;;;;;2.15;1.13;;;23.60;99.90;;;;;;5231041;28;20231;-62
2021/08/12 08:52:31;;;;;;;3.67;1.20;;;23.60;99.90;;;;;;5231032;28;20193;-62
2021/08/12 08:55:04;;;;;;;2.78;1.27;;;23.60;99.90;;;;;;5231009;28;20205;-63
2021/08/12 08:57:41;;;;;;;4.38;1.17;;;23.60;99.90;;;;;;5229903;28;20597;-62
2021/08/12 09:00:14;;;;;;;3.28;1.40;;;23.70;99.90;;;;;;5230505;28;20559;-62
2021/08/12 09:02:50;;;;;;;1.83;1.30;;;23.80;99.90;;;;;;5230997;28;20205;-62
2021/08/12 09:05:23;;;;;;;3.60;1.45;;;23.30;99.90;;;;;;5230604;28;20205;-62
2021/08/12 09:07:57;;;;;;;1.60;1.00;;;23.40;99.90;;;;;;5213193;28;20388;-64
2021/08/12 09:10:32;;;;;;;3.55;1.35;;;23.40;99.90;;;;;;5230561;28;20229;-63
2021/08/12 09:13:07;;;;;;;1.73;1.42;;;23.30;99.90;;;;;;5229132;28;20185;-64
2021/08/12 09:15:43;;;;;;;5.65;1.70;;;23.10;99.90;;;;;;5230355;28;20201;-60
2021/08/12 09:18:27;;;;;;;7.38;1.80;;;23.20;99.90;;;;;;5231017;28;20530;-61
2021/08/12 09:21:19;;;;;;;3.78;1.40;;;23.10;99.90;;;;;;5230585;28;20233;-62
2021/08/12 09:23:57;;;;;;;12.50;1.83;;;23.10;99.90;;;;;;5230401;28;20209;-63
2021/08/12 09:26:40;;;;;;;3.35;1.45;;;23.30;99.90;;;;;;5228627;28;20225;-65
2021/08/12 09:29:31;;;;;;;2.60;1.33;;;23.30;99.90;;;;;;5230529;28;20563;-66
2021/08/12 09:32:07;;;;;;;5.50;1.60;;;23.00;99.90;;;;;;5230422;28;20229;-62
2021/08/12 09:34:45;;;;;;;2.60;1.17;;;23.00;99.90;;;;;;5230093;28;20212;-63
2021/08/12 09:37:17;;;;;;;2.58;1.30;;;23.10;99.90;;;;;;5228922;28;20236;-58
2021/08/12 09:40:02;;;;;;;6.22;1.35;;;23.30;99.90;;;;;;5230592;28;20205;-63
2021/08/12 09:43:01;;;;;;;4.45;1.10;;;23.40;99.90;;;;;;5228934;28;20230;-61
2021/08/12 09:45:34;;;;;;;3.38;1.33;;;23.50;99.90;;;;;;5229752;28;20212;-64
2021/08/12 09:48:18;;;;;;;4.78;1.30;;;23.80;99.90;;;;;;5229716;28;20300;-62
2021/08/12 09:51:02;;;;;;;1.88;1.30;;;23.80;99.90;;;;;;5228724;28;20220;-61
2021/08/12 09:53:34;;;;;;;2.28;1.08;;;24.00;99.90;;;;;;5229107;28;20185;-63
2021/08/12 09:56:11;;;;;;;1.65;1.08;;;24.20;99.90;;;;;;5231099;28;20198;-63
2021/08/12 09:58:45;;;;;;;2.72;1.10;;;24.10;99.90;;;;;;5229858;28;20648;-62
2021/08/12 10:01:25;;;;;;;1.70;1.10;;;24.10;99.90;;;;;;5229500;28;20204;-63
2021/08/12 10:03:57;;;;;;;2.88;1.02;;;24.20;99.90;;;;;;5229603;28;20280;-63
2021/08/12 10:06:30;;;;;;;4.72;0.98;;;24.30;99.90;;;;;;5230164;28;20687;-64
2021/08/12 10:09:16;;;;;;;3.10;0.90;;;24.60;99.90;;;;;;5228424;28;20193;-63
2021/08/12 10:11:48;;;;;;;1.35;0.85;;;24.80;99.90;;;;;;5228436;28;20648;-63
2021/08/12 10:14:23;;;;;;;2.63;1.05;;;24.40;99.50;;;;;;5228518;28;20202;-63
2021/08/12 10:16:56;;;;;;;4.15;1.20;;;24.10;99.90;;;;;;5228241;28;20225;-62
2021/08/12 10:19:33;;;;;;;2.75;1.13;;;24.10;99.90;;;;;;5229238;28;20213;-64
2021/08/12 10:22:08;;;;;;;2.17;1.02;;;23.90;99.90;;;;;;5229225;28;20243;-63
2021/08/12 10:24:40;;;;;;;3.17;1.08;;;23.50;99.90;;;;;;5229503;28;20605;-64
2021/08/12 10:27:13;;;;;;;1.45;0.90;;;23.60;99.90;;;;;;5227993;28;20240;-63
2021/08/12 10:29:47;;;;;;;3.10;1.20;;;23.40;99.90;;;;;;5228111;28;20218;-63
2021/08/12 10:32:21;;;;;;;3.72;1.13;;;23.20;99.90;;;;;;5228968;28;20601;-64
2021/08/12 10:34:53;;;;;;;1.45;0.93;;;23.00;99.90;;;;;;5212191;28;20205;-64
2021/08/12 10:37:26;;;;;;;5.18;1.17;;;23.10;99.90;;;;;;5227383;28;20242;-62
2021/08/12 10:39:59;;;;;;;4.10;1.05;;;23.30;99.90;;;;;;5228724;28;20208;-62
2021/08/12 10:42:33;;;;;;;2.05;0.77;;;23.50;99.90;;;;;;5229050;28;20239;-65
2021/08/12 10:45:06;;;;;;;2.97;0.95;;;23.50;99.90;;;;;;5228134;28;20208;-62
2021/08/12 10:47:43;;;;;;;2.08;1.00;;;23.40;99.90;;;;;;5227909;28;20539;-63
2021/08/12 10:50:31;;;;;;;4.15;0.60;;;23.50;99.90;;;;;;5228103;28;20664;-62
2021/08/12 10:53:07;;;;;;;1.30;0.43;;;23.50;99.50;;;;;;5228885;28;20206;-60
2021/08/12 10:55:39;;;;;;;1.42;0.70;;;23.50;99.90;;;;;;5229082;28;20239;-63
2021/08/12 10:58:22;;;;;;;1.00;0.60;;;23.40;99.90;;;;;;5228579;28;20229;-65
2021/08/12 11:00:57;;;;;;;1.02;0.60;;;23.30;99.90;;;;;;5228675;28;20193;-62
2021/08/12 11:03:35;;;;;;;1.58;0.75;;;23.40;99.50;;;;;;5229070;28;20294;-62
2021/08/12 11:06:12;;;;;;;2.15;0.80;;;23.40;99.90;;;;;;5228974;28;20216;-61
2021/08/12 11:08:53;;;;;;;2.30;0.45;;;23.60;99.60;;;;;;5228746;28;20304;-62
2021/08/12 11:11:28;;;;;;;1.80;0.60;;;23.60;96.00;;;;;;5229175;28;20257;-61
2021/08/12 11:14:08;;;;;;;1.52;0.60;;;23.60;96.30;;;;;;5228285;28;20236;-64
2021/08/12 11:16:40;;;;;;;1.85;0.60;;;23.80;97.00;;;;;;5228846;28;20593;-61
2021/08/12 11:19:21;;;;;;;1.13;0.70;;;23.80;97.30;;;;;;5228724;28;20232;-61
2021/08/12 11:21:54;;;;;;;1.33;0.55;;;23.90;96.90;;;;;;5228713;28;20197;-62
2021/08/12 11:24:26;;;;;;;1.13;0.50;;;24.10;96.80;;;;;;5228556;28;20538;-64
2021/08/12 11:27:01;;;;;;;3.40;0.73;;;24.30;97.40;;;;;;5228291;28;20202;-62
2021/08/12 11:29:38;;;;;;;1.85;0.73;;;24.60;96.70;;;;;;5228802;28;20388;-61
2021/08/12 11:32:14;;;;;;;1.70;0.68;;;24.60;97.10;;;;;;5212145;28;20537;-63
2021/08/12 11:34:52;;;;;;;1.40;0.73;;;24.80;97.30;;;;;;5228819;28;20201;-62
2021/08/12 11:37:30;;;;;;;1.20;0.77;;;24.90;96.30;;;;;;5228650;28;20201;-64
2021/08/12 11:40:10;;;;;;;2.97;0.80;;;24.80;95.50;;;;;;5228546;28;20569;-62
2021/08/12 11:42:45;;;;;;;2.47;0.60;;;24.60;95.60;;;;;;5226987;28;20205;-63
2021/08/12 11:45:22;;;;;;;2.67;0.82;;;24.30;96.90;;;;;;5227771;28;20204;-62
2021/08/12 11:47:56;;;;;;;2.40;0.60;;;24.20;96.90;;;;;;5228114;28;20642;-62
2021/08/12 11:50:29;;;;;;;1.10;0.60;;;24.20;97.00;;;;;;5231207;28;20213;-62
2021/08/12 11:53:01;;;;;;;2.10;0.70;;;24.20;96.80;;;;;;5231744;28;20232;-62
2021/08/12 11:55:36;;;;;;;2.45;0.80;;;24.30;97.00;;;;;;5231872;28;20209;-66
2021/08/12 11:58:08;;;;;;;2.13;1.00;;;24.30;95.80;;;;;;5231757;28;20229;-61
2021/08/12 12:00:41;;;;;;;2.58;1.00;;;24.20;96.40;;;;;;5231786;28;20217;-64
2021/08/12 12:03:29;;;;;;;1.75;1.20;;;24.20;97.00;;;;;;5214245;28;20233;-64
2021/08/12 12:06:01;;;;;;;1.27;0.70;;;24.30;97.30;;;;;;5231871;28;20210;-60
2021/08/12 12:08:33;;;;;;;2.10;1.08;;;24.30;99.00;;;;;;5230413;28;20259;-62
2021/08/12 12:11:10;;;;;;;2.42;0.93;;;24.10;99.90;;;;;;5231961;28;20330;-62
2021/08/12 12:13:42;;;;;;;2.33;1.00;;;24.20;99.90;;;;;;5214387;28;20229;-61
2021/08/12 12:16:14;;;;;;;2.03;0.85;;;24.30;99.90;;;;;;5214125;28;20228;-63
2021/08/12 12:18:46;;;;;;;3.67;0.93;;;24.30;99.90;;;;;;5230299;28;20226;-62
2021/08/12 12:21:18;;;;;;;2.92;0.95;;;24.40;99.90;;;;;;5229937;28;20201;-61
2021/08/12 12:23:50;;;;;;;2.75;1.50;;;24.20;99.90;;;;;;5230204;28;20225;-62
2021/08/12 12:26:29;;;;;;;4.22;1.05;;;24.10;99.90;;;;;;5230219;28;20228;-61
2021/08/12 12:29:10;;;;;;;4.72;1.45;;;24.20;99.90;;;;;;5230893;28;20239;-61
2021/08/12 12:31:55;;;;;;;4.35;0.95;;;24.00;99.90;;;;;;5231029;28;20217;-62
2021/08/12 12:34:28;;;;;;;4.82;1.05;;;23.60;99.90;;;;;;5230550;28;20221;-62
2021/08/12 12:37:00;;;;;;;3.67;1.20;;;23.10;99.90;;;;;;5231206;28;20567;-62
2021/08/12 12:39:32;;;;;;;2.65;1.17;;;22.70;99.90;;;;;;5229832;28;20236;-63
2021/08/12 12:42:05;;;;;;;3.78;1.40;;;22.50;99.90;;;;;;5231052;28;20205;-61
2021/08/12 12:44:59;;;;;;;2.63;1.02;;;22.50;99.90;;;;;;5229667;28;20235;-63
2021/08/12 12:47:33;;;;;;;2.85;1.10;;;22.80;99.90;;;;;;5230668;28;20213;-62
2021/08/12 12:50:11;;;;;;;3.97;1.05;;;22.90;99.90;;;;;;5230718;28;20231;-62
2021/08/12 12:52:58;;;;;;;2.63;1.23;;;23.00;99.90;;;;;;5231009;28;20526;-62
2021/08/12 12:55:35;;;;;;;2.95;1.00;;;23.20;99.90;;;;;;5229783;28;20225;-63
2021/08/12 12:58:22;;;;;;;1.88;1.08;;;23.30;99.90;;;;;;5230450;28;20197;-63
2021/08/12 13:01:18;;;;;;;2.70;1.27;;;23.30;99.90;;;;;;5229589;28;20198;-61
2021/08/12 13:04:00;;;;;;;2.45;1.10;;;23.10;99.90;;;;;;5230612;28;20295;-62
2021/08/12 13:06:33;;;;;;;1.92;1.00;;;22.90;99.90;;;;;;5230943;28;20504;-62
2021/08/12 13:09:08;;;;;;;6.82;1.40;;;22.70;99.90;;;;;;5230702;28;20235;-61
2021/08/12 13:11:41;;;;;;;6.05;1.42;;;22.60;99.90;;;;;;5230345;28;20553;-63
2021/08/12 13:14:17;;;;;;;2.92;1.10;;;22.50;99.90;;;;;;5229086;28;20236;-64
2021/08/12 13:16:50;;;;;;;2.95;1.30;;;22.50;99.90;;;;;;5229589;28;20224;-64
2021/08/12 13:19:24;;;;;;;2.80;1.05;;;22.40;99.90;;;;;;5230599;28;20552;-64